Terminal Aerodrome Forecast
Issued by NWS Tuscon, AZ

Home | Current Version | Previous Version | Text Only | Print | Product List | Glossary On
Versions: 1 2 3 4 5 6 7 8 9 10 11 12 13 14 15
000
FTUS45 KTWC 042334
TAFDUG
TAF
KDUG 042334Z 0500/0524 25022G32KT P6SM SCT080
     FM050200 27012KT P6SM SCT080
     FM050900 19006KT P6SM FEW080
     FM051700 23011KT P6SM SCT080
     FM052000 25015G25KT P6SM SCT080=

USA.gov is the U.S. government's official web portal to all federal, state and local government web resources and services.